17J

Donalsonville Municipal Airport

Donalsonville, Georgia, USA
METAR K17J 190455Z AUTO 00000KT 10SM CLR 23/22 A2995 RMK AO2 T02300218
Observed Flight Rules
Sep-19 @ 04:55 UTC (43 minutes ago) Visual Flight Rules
Visibility Clouds
10 miles
  • Clear skies
Temperatures Readings
Current 23°C / 73°F
Dewpoint 22°C / 72°F
Humidity 94%
Altimeter 29.95" Hg
Pressure 1014 hPa
Elevation 45
METAR K17J 190455Z AUTO 00000KT 10SM CLR 23/22 A2995 RMK AO2 T02300218
Observed Flight Rules
Sep-19 @ 04:55 UTC
(43 minutes ago)
VFR
Clouds
  • Clear skies
Temperature Dewpoint
23°C / 73°F 22°C / 72°F
Humidity Altimeter Pressure
94% 29.95" Hg 1014 hPa